createdAt,value
2022-08-11T00:02:28.413Z,70.15
2022-08-11T00:05:30.430Z,70.25
2022-08-11T00:08:33.446Z,70.60
2022-08-11T00:11:40.061Z,70.92
2022-08-11T00:14:42.972Z,71.16
2022-08-11T00:17:46.117Z,71.16
2022-08-11T00:20:48.237Z,70.97
2022-08-11T00:23:56.308Z,71.12
2022-08-11T00:26:58.159Z,71.34
2022-08-11T00:29:59.990Z,71.51
2022-08-11T00:33:01.979Z,71.98
2022-08-11T00:36:04.676Z,72.45
2022-08-11T00:39:08.326Z,72.74
2022-08-11T00:42:15.835Z,72.70
2022-08-11T00:45:29.440Z,73.12
2022-08-11T00:49:12.152Z,73.11
2022-08-11T00:52:29.726Z,73.30
2022-08-11T00:56:05.364Z,73.51
2022-08-11T00:59:34.379Z,73.66
2022-08-11T01:03:06.663Z,73.79
2022-08-11T01:06:26.449Z,73.99
2022-08-11T01:09:35.273Z,74.05
2022-08-11T01:12:45.166Z,74.24
2022-08-11T01:16:25.404Z,74.17
2022-08-11T01:20:38.623Z,74.27
2022-08-11T01:23:32.370Z,74.39
2022-08-11T01:26:55.603Z,74.51
2022-08-11T01:30:08.000Z,74.55
2022-08-11T01:33:27.356Z,74.70
2022-08-11T01:36:38.245Z,74.82
2022-08-11T01:40:24.403Z,75.25
2022-08-11T01:44:16.152Z,75.84
2022-08-11T01:47:53.428Z,76.23
2022-08-11T01:51:30.262Z,76.36
2022-08-11T01:54:59.617Z,76.20
2022-08-11T01:58:19.925Z,76.24
2022-08-11T02:01:51.844Z,76.36
2022-08-11T02:05:01.608Z,76.22
2022-08-11T02:08:33.221Z,76.16
2022-08-11T02:11:37.589Z,76.18
2022-08-11T02:15:16.224Z,76.38
2022-08-11T02:18:48.606Z,76.48
2022-08-11T02:22:16.245Z,76.48
2022-08-11T02:25:28.994Z,76.84
2022-08-11T02:28:55.253Z,77.14
2022-08-11T02:32:48.425Z,77.38
2022-08-11T02:36:24.737Z,77.47
2022-08-11T02:39:36.588Z,77.74
2022-08-11T02:42:45.826Z,77.90
2022-08-11T02:46:01.499Z,78.02
2022-08-11T02:49:21.667Z,77.85
2022-08-11T02:52:35.718Z,77.93
2022-08-11T02:56:01.197Z,78.43
2022-08-11T02:59:38.730Z,78.55
2022-08-11T03:02:53.725Z,78.44
2022-08-11T03:06:17.302Z,78.34
2022-08-11T03:09:25.666Z,78.66
2022-08-11T03:12:54.247Z,78.91
2022-08-11T03:16:38.200Z,78.98
2022-08-11T03:20:01.215Z,78.98
2022-08-11T03:23:03.068Z,79.38
2022-08-11T03:26:33.677Z,79.37
2022-08-11T03:29:42.524Z,79.28
2022-08-11T03:33:27.349Z,79.40
2022-08-11T03:37:17.004Z,79.75
2022-08-11T03:40:38.311Z,79.61
2022-08-11T03:44:29.955Z,79.81
2022-08-11T03:47:41.664Z,79.58
2022-08-11T03:51:14.370Z,79.86
2022-08-11T03:54:19.976Z,80.05
2022-08-11T03:57:54.096Z,80.15
2022-08-11T04:01:14.721Z,80.18
2022-08-11T04:04:29.491Z,80.31
2022-08-11T04:08:00.567Z,80.53
2022-08-11T04:11:21.177Z,80.51
2022-08-11T04:15:15.606Z,80.69
2022-08-11T04:18:23.619Z,80.66
2022-08-11T04:22:07.671Z,80.59
2022-08-11T04:25:12.498Z,80.92
2022-08-11T04:28:32.729Z,80.82
2022-08-11T04:32:08.164Z,81.00
2022-08-11T04:35:18.587Z,80.92
2022-08-11T04:38:39.070Z,80.99
2022-08-11T04:42:12.578Z,81.02
2022-08-11T04:45:41.208Z,81.22
2022-08-11T04:49:04.932Z,80.88
2022-08-11T04:52:53.253Z,80.95
2022-08-11T04:56:22.614Z,80.94
2022-08-11T05:00:08.602Z,80.38
2022-08-11T05:03:16.171Z,78.98
2022-08-11T05:06:30.101Z,78.93
2022-08-11T05:09:48.656Z,78.77
2022-08-11T05:13:25.190Z,79.11
2022-08-11T05:16:53.388Z,79.24
2022-08-11T05:20:13.974Z,78.15
2022-08-11T05:23:35.909Z,77.19
2022-08-11T05:27:11.259Z,77.31
2022-08-11T05:30:34.441Z,76.63
2022-08-11T05:34:08.844Z,76.92
2022-08-11T05:37:26.719Z,76.52
2022-08-11T05:40:51.285Z,76.01
2022-08-11T05:44:20.126Z,75.11
2022-08-11T05:47:46.187Z,74.22
2022-08-11T05:51:16.484Z,73.13
2022-08-11T05:54:38.123Z,72.70
2022-08-11T05:57:51.083Z,71.98
2022-08-11T06:00:54.176Z,70.35
2022-08-11T06:04:16.415Z,70.85
2022-08-11T06:07:19.107Z,70.37
2022-08-11T06:10:35.990Z,69.63
2022-08-11T06:13:44.789Z,69.61
2022-08-11T06:16:51.048Z,69.00
2022-08-11T06:20:04.202Z,67.37
2022-08-11T06:23:10.224Z,67.30
2022-08-11T06:26:13.877Z,66.92
2022-08-11T06:29:18.613Z,66.28
2022-08-11T06:32:24.772Z,66.70
2022-08-11T06:35:32.489Z,65.91
2022-08-11T06:38:48.138Z,65.58
2022-08-11T06:41:54.518Z,65.32
2022-08-11T06:45:05.229Z,65.24
2022-08-11T06:48:10.436Z,64.32
2022-08-11T06:51:12.279Z,63.46
2022-08-11T06:54:15.315Z,63.78
2022-08-11T06:57:38.007Z,63.76
2022-08-11T07:00:40.787Z,64.56
2022-08-11T07:03:48.997Z,63.23
2022-08-11T07:07:21.307Z,63.21
2022-08-11T07:10:59.465Z,62.98
2022-08-11T07:14:22.159Z,62.51
2022-08-11T07:17:25.540Z,62.78
2022-08-11T07:20:47.217Z,62.57
2022-08-11T07:24:07.905Z,61.88
2022-08-11T07:27:41.025Z,61.52
2022-08-11T07:30:43.557Z,60.71
2022-08-11T07:34:05.046Z,60.39
2022-08-11T07:37:17.833Z,60.02
2022-08-11T07:40:24.185Z,59.69
2022-08-11T07:43:25.885Z,58.93
2022-08-11T07:46:46.267Z,58.03
2022-08-11T07:50:08.003Z,57.72
2022-08-11T07:53:10.432Z,56.49
2022-08-11T07:56:17.315Z,54.44
2022-08-11T08:00:03.395Z,55.64
2022-08-11T08:03:25.018Z,55.50
2022-08-11T08:06:46.462Z,54.70
2022-08-11T08:10:08.065Z,53.93
2022-08-11T08:13:28.754Z,53.06
2022-08-11T08:16:49.232Z,52.71
2022-08-11T08:19:51.207Z,52.85
2022-08-11T08:22:58.362Z,53.13
2022-08-11T08:26:03.318Z,52.74
2022-08-11T08:29:25.606Z,52.44
2022-08-11T08:32:28.231Z,51.27
2022-08-11T08:35:32.910Z,51.26
2022-08-11T08:38:35.081Z,50.67
2022-08-11T08:41:38.919Z,50.22
2022-08-11T08:44:46.501Z,49.26
2022-08-11T08:48:01.789Z,48.79
2022-08-11T08:52:02.439Z,46.44
2022-08-11T08:54:56.413Z,46.89
2022-08-11T08:58:00.795Z,47.35
2022-08-11T09:01:03.247Z,47.06
2022-08-11T09:04:11.762Z,46.52
2022-08-11T09:07:20.024Z,47.63
2022-08-11T09:10:22.857Z,48.00
2022-08-11T09:13:24.663Z,48.30
2022-08-11T09:16:26.470Z,47.10
2022-08-11T09:19:28.165Z,46.60
2022-08-11T09:23:24.248Z,47.50
2022-08-11T09:26:36.106Z,47.48
2022-08-11T09:29:38.434Z,47.11
2022-08-11T09:32:42.169Z,45.10
2022-08-11T09:35:45.417Z,45.23
2022-08-11T09:39:05.896Z,44.69
2022-08-11T09:42:11.390Z,44.56
2022-08-11T09:45:19.366Z,44.21
2022-08-11T09:48:24.701Z,43.80
2022-08-11T09:51:31.066Z,43.20
2022-08-11T09:54:33.316Z,43.02
2022-08-11T09:57:55.133Z,43.22
2022-08-11T10:00:59.371Z,42.42
2022-08-11T10:04:10.846Z,42.06
2022-08-11T10:07:17.311Z,42.17
2022-08-11T10:10:22.948Z,42.75
2022-08-11T10:14:04.921Z,41.63
2022-08-11T10:16:57.459Z,41.09
2022-08-11T10:20:05.381Z,41.50
2022-08-11T10:23:27.691Z,41.25
2022-08-11T10:26:49.759Z,41.67
2022-08-11T10:30:10.573Z,41.66
2022-08-11T10:33:37.855Z,41.83
2022-08-11T10:36:48.594Z,41.98
2022-08-11T10:39:52.294Z,42.49
2022-08-11T10:43:02.997Z,42.55
2022-08-11T10:46:30.450Z,43.46
2022-08-11T10:49:32.989Z,43.57
2022-08-11T10:52:56.002Z,42.80
2022-08-11T10:56:17.370Z,41.02
2022-08-11T10:59:19.314Z,41.34
2022-08-11T11:02:21.569Z,41.34
2022-08-11T11:05:29.022Z,41.00
2022-08-11T11:08:50.128Z,41.16
2022-08-11T11:12:16.552Z,41.47
2022-08-11T11:15:39.738Z,42.16
2022-08-11T11:18:43.191Z,42.91
2022-08-11T11:21:47.677Z,43.26
2022-08-11T11:25:21.418Z,43.86
2022-08-11T11:28:52.081Z,44.72
2022-08-11T11:31:56.449Z,44.25
2022-08-11T11:35:19.074Z,43.50
2022-08-11T11:38:21.371Z,42.21
2022-08-11T11:41:27.279Z,42.34
2022-08-11T11:44:29.769Z,42.37
2022-08-11T11:47:32.158Z,41.19
2022-08-11T11:50:36.547Z,41.09
2022-08-11T11:53:38.369Z,40.27
2022-08-11T11:56:41.541Z,40.07
2022-08-11T12:00:07.575Z,40.21
2022-08-11T12:03:11.346Z,40.96
2022-08-11T12:06:16.292Z,39.78
2022-08-11T12:09:23.372Z,39.39
2022-08-11T12:12:45.126Z,37.71
2022-08-11T12:16:33.722Z,37.46
2022-08-11T12:19:18.215Z,38.12
2022-08-11T12:22:38.376Z,40.49
2022-08-11T12:26:23.732Z,41.62
2022-08-11T12:29:27.429Z,45.60
2022-08-11T12:32:31.430Z,49.72
2022-08-11T12:35:35.352Z,52.89
2022-08-11T12:38:37.348Z,55.26
2022-08-11T12:41:59.182Z,57.03
2022-08-11T12:45:28.530Z,59.27
2022-08-11T12:49:00.459Z,60.82
2022-08-11T12:52:14.856Z,61.76
2022-08-11T12:55:39.768Z,62.53
2022-08-11T12:58:43.115Z,62.90
2022-08-11T13:02:03.810Z,63.38
2022-08-11T13:05:08.401Z,63.74
2022-08-11T13:08:10.661Z,64.06
2022-08-11T13:11:56.674Z,64.48
2022-08-11T13:14:56.023Z,64.88
2022-08-11T13:17:59.493Z,65.10
2022-08-11T13:21:01.659Z,64.83
2022-08-11T13:24:03.855Z,64.38
2022-08-11T13:27:06.827Z,64.21
2022-08-11T13:30:27.810Z,63.19
2022-08-11T13:33:29.772Z,60.91
2022-08-11T13:36:32.075Z,60.85
2022-08-11T13:39:35.451Z,60.13
2022-08-11T13:42:39.656Z,59.14
2022-08-11T13:45:43.860Z,57.77
2022-08-11T13:48:46.048Z,57.21
2022-08-11T13:51:48.069Z,55.97
2022-08-11T13:54:51.235Z,55.29
2022-08-11T13:58:08.177Z,54.41
2022-08-11T14:02:03.519Z,53.77
2022-08-11T14:04:44.070Z,51.52
2022-08-11T14:07:50.976Z,50.96
2022-08-11T14:11:19.903Z,51.37
2022-08-11T14:14:36.173Z,52.45
2022-08-11T14:17:48.802Z,52.77
2022-08-11T14:21:13.383Z,51.85
2022-08-11T14:24:16.629Z,50.55
2022-08-11T14:28:22.127Z,50.27
2022-08-11T14:31:00.498Z,49.88
2022-08-11T14:34:08.837Z,49.30
2022-08-11T14:37:13.140Z,48.68
2022-08-11T14:40:35.010Z,47.49
2022-08-11T14:44:12.510Z,47.15
2022-08-11T14:47:23.881Z,46.62
2022-08-11T14:50:29.246Z,46.56
2022-08-11T14:53:31.837Z,45.98
2022-08-11T14:56:37.225Z,45.62
2022-08-11T14:59:39.341Z,45.23
2022-08-11T15:03:01.701Z,44.87
2022-08-11T15:06:05.268Z,44.53
2022-08-11T15:09:09.287Z,44.31
2022-08-11T15:12:32.429Z,44.32
2022-08-11T15:15:54.098Z,44.03
2022-08-11T15:18:55.889Z,44.11
2022-08-11T15:22:17.151Z,43.09
2022-08-11T15:25:21.015Z,44.31
2022-08-11T15:28:42.606Z,44.70
2022-08-11T15:32:03.671Z,45.69
2022-08-11T15:35:24.451Z,45.67
2022-08-11T15:38:27.951Z,45.75
2022-08-11T15:42:00.706Z,46.53
2022-08-11T15:45:23.661Z,46.43
2022-08-11T15:48:42.867Z,46.76
2022-08-11T15:52:07.971Z,47.41
2022-08-11T15:55:10.416Z,48.45
2022-08-11T15:58:32.358Z,48.39
2022-08-11T16:01:53.801Z,48.32
2022-08-11T16:04:57.062Z,49.79
2022-08-11T16:08:00.046Z,51.13
2022-08-11T16:11:03.878Z,52.13
2022-08-11T16:14:24.901Z,53.20
2022-08-11T16:17:32.122Z,54.00
2022-08-11T16:20:34.793Z,54.86
2022-08-11T16:23:37.855Z,56.01
2022-08-11T16:27:10.980Z,57.14
2022-08-11T16:30:05.969Z,58.02
2022-08-11T16:33:22.566Z,58.66
2022-08-11T16:36:50.670Z,59.22
2022-08-11T16:39:53.016Z,59.33
2022-08-11T16:43:15.647Z,59.97
2022-08-11T16:46:38.055Z,60.38
2022-08-11T16:49:52.218Z,61.23
2022-08-11T16:52:54.806Z,61.96
2022-08-11T16:55:58.721Z,62.67
2022-08-11T16:59:18.188Z,63.29
2022-08-11T17:02:42.153Z,63.37
2022-08-11T17:06:12.310Z,63.42
2022-08-11T17:09:36.460Z,63.66
2022-08-11T17:12:58.012Z,63.77
2022-08-11T17:16:07.910Z,63.97
2022-08-11T17:19:17.032Z,64.18
2022-08-11T17:22:38.041Z,64.15
2022-08-11T17:26:03.729Z,64.33
2022-08-11T17:29:03.328Z,64.60
2022-08-11T17:32:29.928Z,64.68
2022-08-11T17:35:51.693Z,64.70
2022-08-11T17:38:53.851Z,65.12
2022-08-11T17:42:15.551Z,65.29
2022-08-11T17:45:37.889Z,65.61
2022-08-11T17:48:47.267Z,65.83
2022-08-11T17:52:09.266Z,66.11
2022-08-11T17:55:51.970Z,65.97
2022-08-11T17:59:11.867Z,66.32
2022-08-11T18:02:35.103Z,66.76
2022-08-11T18:05:38.314Z,67.09
2022-08-11T18:09:05.938Z,67.17
2022-08-11T18:12:28.366Z,67.29
2022-08-11T18:15:49.935Z,67.52
2022-08-11T18:19:16.586Z,67.84
2022-08-11T18:22:42.206Z,67.99
2022-08-11T18:26:07.420Z,68.28
2022-08-11T18:29:29.643Z,68.59
2022-08-11T18:32:53.682Z,68.72
2022-08-11T18:36:20.627Z,69.19
2022-08-11T18:39:42.780Z,69.48
2022-08-11T18:43:06.539Z,69.78
2022-08-11T18:46:29.063Z,70.17
2022-08-11T18:50:02.174Z,70.34
2022-08-11T18:53:25.098Z,70.60
2022-08-11T18:56:46.542Z,70.73
2022-08-11T19:00:09.327Z,70.89
2022-08-11T19:03:31.443Z,71.08
2022-08-11T19:07:05.581Z,71.27
2022-08-11T19:10:26.907Z,71.54
2022-08-11T19:13:51.477Z,71.88
2022-08-11T19:17:13.990Z,72.08
2022-08-11T19:20:55.512Z,72.06
2022-08-11T19:24:19.834Z,72.23
2022-08-11T19:27:43.412Z,72.40
2022-08-11T19:31:04.020Z,72.56
2022-08-11T19:34:25.737Z,72.78
2022-08-11T19:37:46.827Z,73.04
2022-08-11T19:41:07.830Z,73.14
2022-08-11T19:44:30.148Z,73.15
2022-08-11T19:47:59.134Z,73.40
2022-08-11T19:51:32.906Z,73.65
2022-08-11T19:54:54.465Z,73.97
2022-08-11T19:58:15.826Z,74.06
2022-08-11T20:01:36.574Z,73.98
2022-08-11T20:04:57.372Z,74.26
2022-08-11T20:08:18.624Z,74.44
2022-08-11T20:11:39.375Z,74.65
2022-08-11T20:15:01.981Z,74.97
2022-08-11T20:18:25.079Z,75.16
2022-08-11T20:21:46.342Z,75.29
2022-08-11T20:25:07.653Z,75.53
2022-08-11T20:28:30.582Z,75.63
2022-08-11T20:31:50.993Z,75.49
2022-08-11T20:35:12.196Z,75.74
2022-08-11T20:38:34.249Z,76.03
2022-08-11T20:41:58.363Z,76.39
2022-08-11T20:45:23.555Z,76.56
2022-08-11T20:48:45.656Z,76.85
2022-08-11T20:52:06.493Z,77.01
2022-08-11T20:55:51.684Z,77.33
2022-08-11T20:59:18.551Z,77.32
2022-08-11T21:02:40.653Z,77.29
2022-08-11T21:06:08.934Z,77.22
2022-08-11T21:09:58.227Z,77.41
2022-08-11T21:13:25.874Z,77.39
2022-08-11T21:16:51.906Z,77.75
2022-08-11T21:20:21.612Z,77.97
2022-08-11T21:23:42.408Z,77.92
2022-08-11T21:27:05.618Z,78.29
2022-08-11T21:30:27.078Z,78.70
2022-08-11T21:33:47.439Z,79.03
2022-08-11T21:37:08.841Z,79.01
2022-08-11T21:40:30.209Z,79.11
2022-08-11T21:43:51.231Z,78.88
2022-08-11T21:47:12.411Z,79.55
2022-08-11T21:50:33.001Z,79.83
2022-08-11T21:53:54.375Z,80.08
2022-08-11T21:57:15.326Z,80.38
2022-08-11T22:00:35.787Z,80.48
2022-08-11T22:03:57.163Z,80.55
2022-08-11T22:07:18.255Z,80.62
2022-08-11T22:10:40.886Z,80.57
2022-08-11T22:14:07.952Z,80.52
2022-08-11T22:17:28.542Z,80.52
2022-08-11T22:20:50.569Z,80.79
2022-08-11T22:24:11.515Z,81.20
2022-08-11T22:27:39.796Z,80.96
2022-08-11T22:31:00.051Z,81.04
2022-08-11T22:34:20.684Z,80.91
2022-08-11T22:37:41.879Z,81.01
2022-08-11T22:41:02.932Z,81.13
2022-08-11T22:44:23.824Z,81.30
2022-08-11T22:47:45.049Z,81.22
2022-08-11T22:51:05.704Z,81.77
2022-08-11T22:54:27.566Z,82.11
2022-08-11T22:58:01.277Z,82.00
2022-08-11T23:01:22.025Z,82.45
2022-08-11T23:04:42.953Z,82.34
2022-08-11T23:08:04.400Z,82.33
2022-08-11T23:11:24.936Z,82.31
2022-08-11T23:14:45.954Z,82.47
2022-08-11T23:18:06.640Z,83.01
2022-08-11T23:21:27.401Z,82.87
2022-08-11T23:24:48.600Z,82.51
2022-08-11T23:28:09.241Z,82.71
2022-08-11T23:31:50.396Z,82.80
2022-08-11T23:35:40.462Z,82.99
2022-08-11T23:38:54.569Z,83.35
2022-08-11T23:42:15.538Z,83.26
2022-08-11T23:45:36.467Z,83.27
2022-08-11T23:48:58.565Z,83.19
2022-08-11T23:52:22.608Z,83.00
2022-08-11T23:55:43.237Z,82.72
2022-08-11T23:59:04.621Z,82.49
